Time;durP1;ratioP1;P1;durP2;ratioP2;P2;SDS_P1;SDS_P2;PMS_P1;PMS_P2;Temp;Humidity;BMP_temperature;BMP_pressure;BME280_temperature;BME280_humidity;BME280_pressure;Samples;Min_cycle;Max_cycle;Signal;HPM_P1;HPM_P2
2021/09/26 00:01:44;;;;;;;12.88;7.40;;;17.10;99.90;;;;;;5043122;28;19917;-82
2021/09/26 00:04:09;;;;;;;;;;;17.10;99.90;;;;;;5066495;28;20040;-78
2021/09/26 00:06:35;;;;;;;12.05;7.55;;;17.10;99.90;;;;;;5058705;28;20007;-79
2021/09/26 00:09:01;;;;;;;;;;;17.00;99.90;;;;;;5051513;28;20048;-77
2021/09/26 00:11:27;;;;;;;16.67;7.75;;;17.10;99.90;;;;;;5059936;28;19920;-80
2021/09/26 00:13:53;;;;;;;;;;;17.00;99.90;;;;;;5068044;28;20046;-80
2021/09/26 00:16:19;;;;;;;13.23;7.47;;;17.00;99.90;;;;;;5067131;28;19920;-81
2021/09/26 00:18:45;;;;;;;16.23;7.80;;;17.00;99.90;;;;;;5042350;28;20036;-78
2021/09/26 00:21:11;;;;;;;;;;;17.00;99.90;;;;;;5044345;28;20040;-80
2021/09/26 00:23:36;;;;;;;12.65;7.63;;;17.00;99.90;;;;;;5059798;28;19928;-79
2021/09/26 00:26:03;;;;;;;;;;;17.00;99.90;;;;;;5029164;28;20063;-81
2021/09/26 00:28:30;;;;;;;14.68;8.85;;;17.00;99.90;;;;;;5039642;28;19927;-78
2021/09/26 00:30:56;;;;;;;16.52;8.70;;;17.00;99.90;;;;;;5066480;28;20051;-80
2021/09/26 00:33:21;;;;;;;;;;;17.00;99.90;;;;;;5031675;28;20049;-79
2021/09/26 00:35:48;;;;;;;18.35;6.95;;;17.00;99.90;;;;;;5050260;28;19916;-79
2021/09/26 00:38:14;;;;;;;15.05;7.65;;;17.00;99.90;;;;;;5065237;28;20052;-81
2021/09/26 00:40:40;;;;;;;8.38;6.65;;;16.90;99.90;;;;;;5067257;28;20040;-79
2021/09/26 00:43:06;;;;;;;13.20;8.02;;;16.90;99.90;;;;;;5038936;28;20109;-79
2021/09/26 00:45:32;;;;;;;;;;;16.90;99.90;;;;;;5060311;28;20041;-79
2021/09/26 00:47:58;;;;;;;8.80;7.57;;;17.00;99.90;;;;;;5047994;28;20011;-79
2021/09/26 00:50:24;;;;;;;;;;;17.00;99.90;;;;;;5040611;28;20047;-81
2021/09/26 00:52:50;;;;;;;14.82;7.65;;;16.90;99.90;;;;;;5059593;28;19916;-82
2021/09/26 00:55:17;;;;;;;12.50;8.18;;;16.90;99.90;;;;;;5044739;28;20040;-80
2021/09/26 00:57:44;;;;;;;9.13;7.68;;;16.90;99.90;;;;;;5056976;28;20043;-82
2021/09/26 01:00:16;;;;;;;9.55;5.72;;;16.90;99.90;;;;;;5060026;28;20044;-80
2021/09/26 01:02:42;;;;;;;15.88;7.57;;;16.90;99.90;;;;;;5054367;28;20127;-79
2021/09/26 01:05:08;;;;;;;;;;;16.90;99.90;;;;;;5053984;28;20123;-81
2021/09/26 01:08:07;;;;;;;13.30;8.33;;;16.90;99.90;;;;;;5039208;28;19924;-80
2021/09/26 01:11:00;;;;;;;18.33;7.93;;;16.90;99.90;;;;;;5056753;28;20044;-81
2021/09/26 01:13:49;;;;;;;9.48;6.30;;;16.90;99.90;;;;;;5056941;28;20044;-80
2021/09/26 01:16:37;;;;;;;7.97;6.85;;;16.90;99.90;;;;;;5060718;28;20094;-78
2021/09/26 01:19:54;;;;;;;16.00;7.47;;;16.90;99.90;;;;;;5050509;28;20037;-80
2021/09/26 01:22:28;;;;;;;9.95;6.78;;;16.90;99.90;;;;;;5030210;28;20053;-80
2021/09/26 01:25:19;;;;;;;8.88;5.43;;;16.90;99.90;;;;;;5052918;28;20044;-79
2021/09/26 01:28:01;;;;;;;11.55;6.97;;;16.90;99.90;;;;;;5038501;28;20048;-78
2021/09/26 01:30:42;;;;;;;12.27;7.13;;;16.90;99.90;;;;;;5052878;28;20055;-81
2021/09/26 01:33:15;;;;;;;11.23;7.05;;;16.90;99.90;;;;;;5049796;28;20058;-79
2021/09/26 01:36:03;;;;;;;13.18;7.53;;;16.90;99.90;;;;;;5061690;28;20044;-82
2021/09/26 01:38:31;;;;;;;9.63;8.25;;;16.90;99.90;;;;;;5045625;28;20106;-81
2021/09/26 01:41:02;;;;;;;14.57;7.82;;;16.90;99.90;;;;;;5055622;28;20040;-80
2021/09/26 01:43:35;;;;;;;10.73;7.15;;;16.90;99.90;;;;;;5049369;28;20029;-78
2021/09/26 01:46:06;;;;;;;13.48;7.72;;;16.90;99.90;;;;;;5058070;28;20505;-79
2021/09/26 01:48:50;;;;;;;12.65;8.10;;;16.80;99.90;;;;;;5050083;28;20049;-81
2021/09/26 01:51:17;;;;;;;16.75;7.40;;;16.90;99.90;;;;;;5057099;28;20044;-79
2021/09/26 01:53:44;;;;;;;11.32;6.88;;;16.90;99.90;;;;;;5038545;28;20748;-79
2021/09/26 01:56:15;;;;;;;11.70;6.53;;;16.80;99.90;;;;;;5055565;28;20032;-81
2021/09/26 01:58:43;;;;;;;21.20;7.55;;;16.80;99.90;;;;;;5048084;28;20149;-80
2021/09/26 02:01:09;;;;;;;12.02;7.80;;;16.80;99.90;;;;;;5043970;28;20051;-81
2021/09/26 02:03:35;;;;;;;;;;;16.90;99.90;;;;;;5053390;28;20032;-78
2021/09/26 02:06:02;;;;;;;13.05;7.55;;;16.80;99.90;;;;;;5059424;28;20026;-80
2021/09/26 02:08:28;;;;;;;10.10;7.68;;;16.80;99.90;;;;;;5053900;28;20414;-81
2021/09/26 02:10:54;;;;;;;10.57;6.22;;;16.80;99.90;;;;;;5053203;28;20044;-81
2021/09/26 02:13:21;;;;;;;13.10;6.97;;;16.80;99.90;;;;;;5054690;28;20079;-79
2021/09/26 02:15:48;;;;;;;8.88;6.90;;;16.80;99.90;;;;;;5053354;28;20033;-80
2021/09/26 02:18:15;;;;;;;11.18;6.45;;;16.80;99.90;;;;;;5054052;28;20044;-78
2021/09/26 02:20:41;;;;;;;11.20;6.63;;;16.80;99.90;;;;;;5054008;28;20097;-80
2021/09/26 02:23:08;;;;;;;6.97;6.28;;;16.80;99.90;;;;;;5037375;28;20051;-80
2021/09/26 02:25:35;;;;;;;9.70;7.03;;;16.80;99.90;;;;;;5059436;28;20089;-80
2021/09/26 02:28:01;;;;;;;9.82;7.03;;;16.80;99.90;;;;;;5053615;28;20044;-80
2021/09/26 02:30:27;;;;;;;12.85;6.57;;;16.70;99.90;;;;;;5064154;28;20457;-79
2021/09/26 02:32:54;;;;;;;13.35;7.72;;;16.70;99.90;;;;;;5053608;28;20037;-79
2021/09/26 02:35:20;;;;;;;12.07;7.07;;;16.70;99.90;;;;;;5053147;28;20393;-81
2021/09/26 02:37:46;;;;;;;;;;;16.70;99.90;;;;;;5047226;28;20053;-80
2021/09/26 02:40:14;;;;;;;12.40;7.18;;;16.70;99.90;;;;;;5030077;28;19917;-81
2021/09/26 02:43:00;;;;;;;10.75;6.68;;;16.70;99.90;;;;;;5033553;28;20108;-80
2021/09/26 02:45:33;;;;;;;11.90;6.45;;;16.70;99.90;;;;;;5034010;28;20048;-80
2021/09/26 02:48:05;;;;;;;13.23;7.72;;;16.70;99.90;;;;;;5047274;28;20049;-79
2021/09/26 02:50:31;;;;;;;13.10;7.47;;;16.70;99.90;;;;;;5031894;28;20045;-81
2021/09/26 02:52:57;;;;;;;10.10;7.57;;;16.70;99.90;;;;;;5033836;28;20099;-80
2021/09/26 02:55:24;;;;;;;;;;;16.70;99.90;;;;;;5035028;28;20057;-79
2021/09/26 02:57:50;;;;;;;8.90;7.15;;;16.70;99.90;;;;;;5017008;28;19995;-79
2021/09/26 03:00:16;;;;;;;;;;;16.70;99.90;;;;;;5034366;28;20455;-79
2021/09/26 03:02:45;;;;;;;13.68;8.50;;;16.70;99.90;;;;;;5033934;28;19917;-79
2021/09/26 03:05:11;;;;;;;11.90;7.03;;;16.70;99.90;;;;;;5033679;28;20092;-78
2021/09/26 03:07:36;;;;;;;12.63;7.10;;;16.60;99.90;;;;;;5018540;28;20445;-81
2021/09/26 03:10:04;;;;;;;;;;;16.60;99.90;;;;;;5034195;28;20049;-81
2021/09/26 03:12:29;;;;;;;17.02;8.38;;;16.60;99.90;;;;;;5034111;28;20271;-79
2021/09/26 03:14:55;;;;;;;;;;;16.60;99.90;;;;;;5033126;28;20048;-79
2021/09/26 03:17:20;;;;;;;9.32;6.28;;;16.60;99.90;;;;;;5032877;28;19939;-79
2021/09/26 03:19:46;;;;;;;;;;;16.60;99.90;;;;;;5032705;28;20061;-80
2021/09/26 03:22:12;;;;;;;12.27;7.30;;;16.60;99.90;;;;;;5050016;28;19995;-81
2021/09/26 03:24:39;;;;;;;11.55;7.13;;;16.60;99.90;;;;;;5033161;28;20038;-80
2021/09/26 03:27:09;;;;;;;11.75;7.18;;;16.60;99.90;;;;;;5016210;28;20042;-80
2021/09/26 03:29:38;;;;;;;13.45;7.80;;;16.60;99.90;;;;;;5033207;28;20056;-78
2021/09/26 03:32:04;;;;;;;9.35;6.38;;;16.60;99.90;;;;;;5031035;28;20037;-79
2021/09/26 03:34:30;;;;;;;11.00;7.32;;;16.60;99.90;;;;;;5016389;28;20120;-81
2021/09/26 03:36:56;;;;;;;;;;;16.60;99.90;;;;;;5026215;28;20124;-80
2021/09/26 03:39:21;;;;;;;12.95;7.60;;;16.50;99.90;;;;;;5036860;28;19917;-79
2021/09/26 03:41:47;;;;;;;;;;;16.50;99.90;;;;;;5053402;28;20060;-79
2021/09/26 03:44:13;;;;;;;10.75;7.53;;;16.40;99.90;;;;;;5036655;28;20378;-79
2021/09/26 03:46:38;;;;;;;;;;;16.30;99.90;;;;;;5049362;28;20045;-80
2021/09/26 03:49:05;;;;;;;9.48;5.38;;;16.20;99.90;;;;;;5051625;28;20285;-81
2021/09/26 03:51:30;;;;;;;12.70;8.30;;;16.10;99.90;;;;;;5036003;28;20048;-80
2021/09/26 03:53:56;;;;;;;13.90;8.32;;;16.00;99.90;;;;;;5051370;28;20032;-82
2021/09/26 03:56:22;;;;;;;;;;;15.90;99.90;;;;;;5053532;28;20044;-79
2021/09/26 03:58:48;;;;;;;14.45;6.53;;;15.90;99.90;;;;;;5052972;28;19917;-81
2021/09/26 04:01:13;;;;;;;;;;;15.70;99.90;;;;;;5018798;28;20037;-79
2021/09/26 04:03:39;;;;;;;14.32;7.00;;;15.70;99.90;;;;;;5035136;28;19925;-79
2021/09/26 04:06:10;;;;;;;11.38;6.18;;;15.60;99.90;;;;;;5035840;28;20044;-79
2021/09/26 04:08:38;;;;;;;9.10;6.70;;;15.60;99.90;;;;;;5053918;28;20490;-79
2021/09/26 04:11:09;;;;;;;16.58;6.82;;;15.50;99.90;;;;;;5035798;28;20044;-81
2021/09/26 04:13:35;;;;;;;11.85;6.95;;;15.50;99.90;;;;;;5036084;28;20037;-81
2021/09/26 04:16:02;;;;;;;10.57;6.10;;;15.50;99.90;;;;;;5035769;28;20421;-78
2021/09/26 04:18:28;;;;;;;9.77;6.30;;;15.40;99.90;;;;;;5048505;28;20071;-78
2021/09/26 04:20:55;;;;;;;9.20;6.20;;;15.40;99.90;;;;;;5052389;28;20112;-83
2021/09/26 04:23:21;;;;;;;11.95;7.80;;;15.40;99.90;;;;;;5034801;28;20033;-81
2021/09/26 04:25:47;;;;;;;12.23;7.38;;;15.40;99.90;;;;;;5052523;28;20044;-82
2021/09/26 04:28:14;;;;;;;;;;;15.30;99.90;;;;;;5035606;28;20043;-81
2021/09/26 04:30:39;;;;;;;12.60;5.43;;;15.20;99.90;;;;;;5035605;28;20332;-79
2021/09/26 04:33:05;;;;;;;11.80;5.80;;;15.20;99.90;;;;;;5034749;28;20041;-80
2021/09/26 04:35:31;;;;;;;8.48;5.43;;;15.10;99.90;;;;;;5035612;28;20037;-79
2021/09/26 04:37:57;;;;;;;;;;;15.10;99.90;;;;;;5053620;28;20080;-80
2021/09/26 04:40:25;;;;;;;12.50;7.55;;;15.00;99.90;;;;;;5052855;28;19917;-81
2021/09/26 04:42:51;;;;;;;7.88;6.03;;;15.00;99.90;;;;;;5040447;28;20150;-81
2021/09/26 04:45:17;;;;;;;10.20;7.28;;;14.90;99.90;;;;;;5037698;28;20504;-82
2021/09/26 04:47:43;;;;;;;10.90;7.55;;;14.90;99.90;;;;;;5052372;28;20045;-79
2021/09/26 04:50:09;;;;;;;;;;;;;;;;;;5018661;28;20372;-81
2021/09/26 04:52:35;;;;;;;13.25;6.82;;;14.80;99.90;;;;;;5053208;28;19959;-79
2021/09/26 04:55:00;;;;;;;;;;;14.70;99.90;;;;;;5051236;28;20457;-78
2021/09/26 04:57:26;;;;;;;10.60;5.40;;;14.70;99.90;;;;;;5036651;28;19916;-79
2021/09/26 04:59:52;;;;;;;;;;;14.70;99.90;;;;;;5053491;28;20068;-79
2021/09/26 05:02:18;;;;;;;11.73;7.07;;;14.60;99.90;;;;;;5052038;28;19921;-79
2021/09/26 05:04:43;;;;;;;;;;;14.60;99.90;;;;;;5031914;28;20041;-80
2021/09/26 05:07:09;;;;;;;11.27;6.97;;;14.60;99.90;;;;;;5052589;28;19924;-78
2021/09/26 05:09:34;;;;;;;;;;;14.50;99.90;;;;;;5019004;28;20036;-79
2021/09/26 05:12:00;;;;;;;8.98;5.90;;;14.60;99.90;;;;;;5035921;28;19920;-80
2021/09/26 05:14:26;;;;;;;;;;;14.50;99.90;;;;;;5054483;28;20036;-79
2021/09/26 05:16:52;;;;;;;15.52;7.47;;;14.50;99.90;;;;;;5039271;28;19924;-81
2021/09/26 05:19:17;;;;;;;7.07;5.65;;;14.50;99.90;;;;;;5051805;28;20067;-80
2021/09/26 05:21:43;;;;;;;11.95;6.55;;;14.50;99.90;;;;;;5019783;28;20037;-80
2021/09/26 05:24:09;;;;;;;;;;;14.50;99.90;;;;;;5035350;28;20049;-79
2021/09/26 05:26:34;;;;;;;9.73;6.22;;;14.50;99.90;;;;;;5052225;28;19927;-78
2021/09/26 05:29:02;;;;;;;;;;;14.50;99.90;;;;;;5053099;28;20390;-80
2021/09/26 05:31:28;;;;;;;9.63;5.43;;;14.50;99.90;;;;;;5053828;28;19924;-78
2021/09/26 05:33:53;;;;;;;;;;;14.40;99.90;;;;;;5054372;28;20041;-81
2021/09/26 05:36:19;;;;;;;13.45;5.57;;;14.40;99.90;;;;;;5036137;28;20313;-79
2021/09/26 05:38:45;;;;;;;10.35;6.72;;;14.40;99.90;;;;;;5052969;28;20045;-82
2021/09/26 05:41:11;;;;;;;11.10;6.22;;;14.40;99.90;;;;;;5059267;28;20120;-81
2021/09/26 05:43:37;;;;;;;7.32;6.28;;;14.40;99.90;;;;;;5047618;28;20064;-81
2021/09/26 05:46:02;;;;;;;12.63;7.78;;;14.30;99.90;;;;;;5043923;28;20068;-79
2021/09/26 05:48:28;;;;;;;9.98;6.07;;;14.30;99.90;;;;;;5051557;28;20151;-81
2021/09/26 05:50:54;;;;;;;;;;;14.30;99.90;;;;;;5042891;28;20193;-80
2021/09/26 05:53:21;;;;;;;7.90;4.97;;;14.30;99.90;;;;;;5056157;28;19970;-79
2021/09/26 05:55:47;;;;;;;9.32;7.55;;;14.40;99.90;;;;;;5036041;28;20037;-79
2021/09/26 05:58:14;;;;;;;21.05;6.95;;;14.40;99.90;;;;;;5034563;28;20545;-81
2021/09/26 06:00:39;;;;;;;8.25;6.72;;;14.40;99.90;;;;;;5035262;28;20135;-83
2021/09/26 06:03:05;;;;;;;15.50;8.68;;;14.40;99.90;;;;;;5035959;28;20079;-78
2021/09/26 06:05:31;;;;;;;10.32;6.00;;;14.40;99.90;;;;;;5051407;28;20053;-82
2021/09/26 06:07:57;;;;;;;8.40;7.53;;;14.50;99.90;;;;;;5051271;28;20048;-80
2021/09/26 06:10:22;;;;;;;;;;;14.50;99.90;;;;;;5035981;28;20052;-81
2021/09/26 06:12:48;;;;;;;11.70;7.53;;;14.50;99.90;;;;;;5051696;28;19916;-81
2021/09/26 06:15:14;;;;;;;;;;;14.50;99.90;;;;;;5035232;28;20048;-78
2021/09/26 06:17:40;;;;;;;9.75;7.82;;;14.50;99.90;;;;;;5022421;28;19924;-81
2021/09/26 06:20:06;;;;;;;10.75;7.03;;;14.60;99.90;;;;;;5055011;28;20057;-80
2021/09/26 06:22:31;;;;;;;11.27;7.65;;;14.60;99.90;;;;;;5057279;28;20060;-77
2021/09/26 06:24:58;;;;;;;16.67;7.65;;;14.60;99.90;;;;;;5040951;28;20399;-80
2021/09/26 06:27:24;;;;;;;11.02;6.90;;;14.60;99.90;;;;;;5045998;28;20056;-75
2021/09/26 06:29:50;;;;;;;9.95;7.25;;;14.70;99.90;;;;;;5063717;28;20091;-77
2021/09/26 06:32:16;;;;;;;11.32;9.18;;;14.70;99.90;;;;;;5023470;28;20033;-78
2021/09/26 06:34:42;;;;;;;9.43;6.88;;;14.70;99.90;;;;;;5037966;28;20113;-81
2021/09/26 06:37:07;;;;;;;10.50;6.55;;;14.80;99.90;;;;;;5029698;28;20061;-82
2021/09/26 06:39:34;;;;;;;;;;;14.80;99.90;;;;;;5019941;28;20041;-81
2021/09/26 06:42:00;;;;;;;14.07;8.20;;;14.90;99.90;;;;;;5034560;28;19920;-77
2021/09/26 06:44:25;;;;;;;11.85;7.78;;;14.90;99.90;;;;;;5034470;28;20199;-79
2021/09/26 06:46:51;;;;;;;;;;;15.00;99.90;;;;;;5039924;28;20045;-79
2021/09/26 06:49:17;;;;;;;9.13;6.82;;;15.00;99.90;;;;;;5044670;28;19920;-78
2021/09/26 06:51:43;;;;;;;;;;;15.10;99.90;;;;;;5023206;28;20048;-82
2021/09/26 06:54:08;;;;;;;13.63;7.95;;;15.10;99.90;;;;;;5034820;28;20003;-81
2021/09/26 06:56:34;;;;;;;;;;;15.20;99.90;;;;;;5040262;28;20045;-79
2021/09/26 06:59:00;;;;;;;9.73;6.18;;;15.20;99.90;;;;;;5038690;28;20259;-80
2021/09/26 07:01:25;;;;;;;;;;;15.30;99.90;;;;;;5040447;28;20069;-81
2021/09/26 07:03:51;;;;;;;9.43;5.78;;;15.40;99.90;;;;;;5034413;28;19939;-82
2021/09/26 07:06:17;;;;;;;;;;;15.40;99.90;;;;;;5015236;28;20080;-80
2021/09/26 07:08:43;;;;;;;14.57;8.27;;;15.50;99.90;;;;;;5036674;28;19921;-82
2021/09/26 07:11:08;;;;;;;14.40;9.93;;;15.50;99.90;;;;;;5015113;28;20242;-79
2021/09/26 07:13:34;;;;;;;;;;;15.50;99.90;;;;;;5002984;28;20049;-79
2021/09/26 07:16:00;;;;;;;10.88;8.23;;;15.70;99.90;;;;;;5021842;28;19962;-80
2021/09/26 07:18:25;;;;;;;;;;;15.70;99.90;;;;;;5042286;28;20033;-78
2021/09/26 07:20:51;;;;;;;12.95;6.75;;;15.70;99.90;;;;;;5047233;28;19923;-81
2021/09/26 07:23:17;;;;;;;13.50;9.18;;;15.80;99.90;;;;;;5018714;28;20045;-80
2021/09/26 07:25:43;;;;;;;12.00;6.97;;;15.80;99.90;;;;;;5035282;28;20044;-81
2021/09/26 07:28:08;;;;;;;;;;;15.90;99.90;;;;;;5000350;28;20073;-79
2021/09/26 07:30:36;;;;;;;14.10;7.05;;;16.00;99.90;;;;;;5034742;28;19917;-79
2021/09/26 07:33:02;;;;;;;10.45;7.72;;;16.00;99.90;;;;;;5021519;28;20041;-79
2021/09/26 07:35:28;;;;;;;8.77;6.88;;;16.10;99.90;;;;;;5000456;28;20041;-81
2021/09/26 07:37:53;;;;;;;10.65;6.65;;;16.20;99.90;;;;;;5020292;28;20426;-80
2021/09/26 07:40:19;;;;;;;11.48;7.13;;;16.30;99.90;;;;;;5036474;28;20099;-81
2021/09/26 07:42:45;;;;;;;8.77;6.65;;;16.30;99.90;;;;;;5018340;28;20380;-80
2021/09/26 07:45:13;;;;;;;;;;;16.30;99.90;;;;;;5016740;28;20045;-82
2021/09/26 07:47:40;;;;;;;10.38;6.25;;;16.40;99.90;;;;;;5014546;28;20401;-80
2021/09/26 07:50:06;;;;;;;11.98;6.70;;;16.50;99.90;;;;;;5032712;28;20041;-78
2021/09/26 07:52:32;;;;;;;12.75;7.20;;;16.60;99.90;;;;;;5034089;28;20112;-81
2021/09/26 07:54:57;;;;;;;11.45;6.80;;;16.70;99.90;;;;;;5034381;28;20045;-79
2021/09/26 07:57:24;;;;;;;;;;;16.80;99.90;;;;;;5021479;28;20480;-80
2021/09/26 07:59:51;;;;;;;7.97;5.40;;;16.80;99.90;;;;;;5017519;28;19924;-81
2021/09/26 08:02:18;;;;;;;10.60;8.18;;;16.90;99.90;;;;;;5032486;28;20050;-80
2021/09/26 08:04:43;;;;;;;11.68;6.57;;;16.90;99.90;;;;;;5015808;28;20111;-78
2021/09/26 08:07:09;;;;;;;11.57;7.88;;;17.00;99.90;;;;;;5016481;28;20485;-80
2021/09/26 08:09:35;;;;;;;;;;;17.10;99.90;;;;;;5034472;28;20033;-84
2021/09/26 08:12:05;;;;;;;7.57;5.28;;;17.10;99.90;;;;;;5017323;28;19921;-79
2021/09/26 08:14:31;;;;;;;10.05;7.22;;;17.20;99.90;;;;;;5011297;28;20034;-77
2021/09/26 08:16:57;;;;;;;14.55;6.50;;;17.30;99.90;;;;;;4997156;28;20042;-78
2021/09/26 08:19:23;;;;;;;9.75;5.35;;;17.30;99.90;;;;;;5032682;28;20068;-79
2021/09/26 08:21:49;;;;;;;10.35;7.55;;;17.40;99.90;;;;;;5035647;28;20525;-81
2021/09/26 08:24:16;;;;;;;11.05;6.50;;;17.50;99.90;;;;;;5034035;28;20037;-81
2021/09/26 08:26:42;;;;;;;9.05;6.03;;;;;;;;;;5051283;28;20094;-77
2021/09/26 08:29:07;;;;;;;;;;;17.60;99.90;;;;;;5032167;28;20053;-78
2021/09/26 08:31:33;;;;;;;12.43;6.18;;;17.70;99.90;;;;;;5017150;28;19939;-78
2021/09/26 08:33:59;;;;;;;9.75;6.75;;;17.70;99.90;;;;;;5015441;28;20052;-80
2021/09/26 08:36:25;;;;;;;;;;;17.80;99.90;;;;;;5022209;28;20052;-79
2021/09/26 08:38:51;;;;;;;11.77;7.13;;;17.80;99.90;;;;;;5034942;28;19966;-82
2021/09/26 08:41:17;;;;;;;;;;;17.80;99.90;;;;;;5061495;28;20113;-81
2021/09/26 08:43:47;;;;;;;9.93;4.95;;;17.90;99.90;;;;;;5053315;28;20369;-82
2021/09/26 08:46:15;;;;;;;10.52;5.57;;;18.00;99.90;;;;;;5052608;28;20132;-81
2021/09/26 08:48:42;;;;;;;8.02;5.25;;;18.10;99.90;;;;;;5043574;28;20155;-81
2021/09/26 08:51:09;;;;;;;9.38;6.47;;;18.10;99.90;;;;;;5057315;28;20119;-83
2021/09/26 08:53:35;;;;;;;10.52;6.35;;;18.20;99.90;;;;;;5057978;28;20032;-81
2021/09/26 08:56:01;;;;;;;;;;;18.30;99.90;;;;;;5042520;28;20540;-82
2021/09/26 08:58:27;;;;;;;8.18;5.05;;;18.40;99.90;;;;;;5045183;28;20358;-84
2021/09/26 09:00:53;;;;;;;10.10;4.55;;;18.50;99.90;;;;;;5047649;28;20040;-79
2021/09/26 09:03:19;;;;;;;;;;;18.50;99.90;;;;;;5034126;28;20048;-83
2021/09/26 09:05:51;;;;;;;13.50;7.13;;;18.60;99.90;;;;;;5015306;28;19921;-81
2021/09/26 09:08:19;;;;;;;14.70;5.85;;;18.70;99.90;;;;;;5024263;28;20059;-82
2021/09/26 09:10:54;;;;;;;9.23;5.15;;;18.70;99.90;;;;;;5028850;28;20443;-82
2021/09/26 09:13:30;;;;;;;8.48;4.55;;;18.80;99.90;;;;;;5029543;28;20033;-83
2021/09/26 09:15:59;;;;;;;6.10;4.72;;;18.80;99.90;;;;;;5050406;28;20033;-84
2021/09/26 09:18:34;;;;;;;10.77;5.90;;;18.90;99.90;;;;;;5050305;28;20088;-84
2021/09/26 09:21:13;;;;;;;6.28;4.13;;;18.90;99.90;;;;;;5043445;28;20098;-81
2021/09/26 09:23:38;;;;;;;8.52;4.95;;;18.90;99.90;;;;;;5054332;28;20463;-83
2021/09/26 09:26:04;;;;;;;9.82;5.60;;;18.90;99.90;;;;;;5053979;28;20056;-79
2021/09/26 09:28:30;;;;;;;;;;;18.90;99.90;;;;;;5036917;28;20041;-81
2021/09/26 09:31:00;;;;;;;7.32;4.80;;;18.90;99.90;;;;;;5035048;28;20350;-81
2021/09/26 09:33:39;;;;;;;8.93;5.90;;;19.00;99.90;;;;;;5051007;28;20095;-82
2021/09/26 09:36:18;;;;;;;6.75;5.22;;;19.00;99.90;;;;;;5053130;28;20508;-80
2021/09/26 09:38:44;;;;;;;6.40;5.20;;;19.10;99.90;;;;;;5043176;28;20087;-82
2021/09/26 09:41:10;;;;;;;9.38;5.38;;;19.10;99.90;;;;;;5053855;28;20056;-81
2021/09/26 09:43:49;;;;;;;10.50;5.10;;;19.20;99.90;;;;;;5054576;28;20092;-80
2021/09/26 09:46:31;;;;;;;8.15;5.05;;;19.20;99.90;;;;;;5053582;28;20686;-79
2021/09/26 09:49:19;;;;;;;6.90;4.45;;;19.20;99.90;;;;;;5038009;28;20048;-83
2021/09/26 09:51:59;;;;;;;7.90;5.07;;;19.20;99.90;;;;;;5013269;28;20382;-80
2021/09/26 09:54:33;;;;;;;6.63;4.55;;;19.30;99.90;;;;;;5051317;28;20037;-80
2021/09/26 09:57:09;;;;;;;8.98;4.80;;;19.30;99.90;;;;;;5060679;28;20135;-81
2021/09/26 09:59:36;;;;;;;8.00;5.22;;;19.40;99.90;;;;;;5068433;28;20044;-80
2021/09/26 10:02:03;;;;;;;6.95;4.10;;;19.50;99.90;;;;;;5028834;28;20037;-81
2021/09/26 10:04:49;;;;;;;5.75;4.78;;;19.50;99.90;;;;;;5062492;28;20508;-80
2021/09/26 10:07:27;;;;;;;7.47;4.43;;;19.50;99.90;;;;;;5043485;28;20076;-78
2021/09/26 10:09:55;;;;;;;6.00;4.68;;;19.60;99.90;;;;;;5045194;28;20531;-79
2021/09/26 10:12:27;;;;;;;5.45;4.30;;;19.90;99.90;;;;;;5047478;28;20039;-81
2021/09/26 10:14:59;;;;;;;8.23;4.97;;;20.10;99.90;;;;;;5062129;28;20029;-81
2021/09/26 10:17:25;;;;;;;8.35;4.13;;;20.30;99.90;;;;;;5035198;28;20079;-80
2021/09/26 10:19:52;;;;;;;8.82;4.90;;;20.40;99.90;;;;;;5048455;28;20066;-80
2021/09/26 10:22:18;;;;;;;7.05;4.55;;;20.50;99.90;;;;;;5043418;28;20040;-78
2021/09/26 10:24:47;;;;;;;5.07;4.13;;;20.60;99.90;;;;;;5037512;28;20124;-81
2021/09/26 10:27:18;;;;;;;7.95;4.68;;;20.60;99.90;;;;;;5052530;28;20113;-80
2021/09/26 10:29:45;;;;;;;10.35;5.07;;;20.70;99.90;;;;;;5054105;28;20040;-79
2021/09/26 10:32:11;;;;;;;7.30;5.05;;;20.80;99.90;;;;;;5035377;28;20037;-80
2021/09/26 10:34:38;;;;;;;6.25;4.57;;;21.00;99.90;;;;;;5065726;28;20119;-80
2021/09/26 10:37:07;;;;;;;6.40;3.78;;;21.20;99.90;;;;;;5053853;28;20056;-80
2021/09/26 10:39:33;;;;;;;4.03;3.10;;;21.30;99.90;;;;;;5082981;28;20056;-80
2021/09/26 10:42:21;;;;;;;6.50;3.63;;;21.30;99.90;;;;;;5063573;28;20051;-79
2021/09/26 10:44:59;;;;;;;4.90;3.13;;;21.40;99.90;;;;;;5046046;28;20127;-79
2021/09/26 10:47:25;;;;;;;4.45;2.97;;;21.50;99.90;;;;;;5031960;28;20170;-79
2021/09/26 10:50:05;;;;;;;4.47;3.33;;;21.60;99.90;;;;;;5063734;28;20493;-79
2021/09/26 10:52:41;;;;;;;4.22;3.42;;;21.70;99.90;;;;;;5047864;28;20044;-81
2021/09/26 10:55:16;;;;;;;5.47;3.40;;;21.90;99.90;;;;;;5054865;28;20040;-78
2021/09/26 10:57:48;;;;;;;5.00;3.63;;;22.20;99.90;;;;;;5037580;28;20052;-78
2021/09/26 11:00:30;;;;;;;6.38;3.70;;;22.40;99.90;;;;;;5071488;28;20067;-78
2021/09/26 11:02:56;;;;;;;3.50;2.70;;;22.70;99.90;;;;;;5056077;28;20550;-78
2021/09/26 11:05:41;;;;;;;6.10;4.25;;;22.90;99.90;;;;;;5048396;28;20127;-80
2021/09/26 11:08:10;;;;;;;8.20;3.97;;;23.00;99.90;;;;;;5059919;28;20040;-80
2021/09/26 11:10:39;;;;;;;4.13;3.17;;;23.20;99.90;;;;;;5056549;28;20047;-80
2021/09/26 11:13:13;;;;;;;3.38;2.75;;;23.20;99.90;;;;;;5060928;28;20041;-78
2021/09/26 11:16:09;;;;;;;5.40;3.47;;;23.20;99.90;;;;;;5069229;28;20328;-81
2021/09/26 11:18:53;;;;;;;4.35;3.20;;;23.10;99.90;;;;;;5047402;28;20077;-78
2021/09/26 11:21:37;;;;;;;4.60;2.80;;;22.90;99.90;;;;;;5053371;28;20405;-77
2021/09/26 11:24:07;;;;;;;4.82;2.92;;;22.70;99.90;;;;;;5055458;28;20521;-78
2021/09/26 11:27:07;;;;;;;3.85;3.05;;;22.60;99.90;;;;;;5046345;28;20044;-79
2021/09/26 11:29:39;;;;;;;4.10;2.35;;;22.50;99.90;;;;;;5045270;28;20035;-79
2021/09/26 11:32:10;;;;;;;4.30;3.13;;;22.40;99.90;;;;;;5057976;28;20040;-80
2021/09/26 11:34:45;;;;;;;3.78;3.08;;;22.30;99.90;;;;;;5044556;28;20362;-78
2021/09/26 11:37:12;;;;;;;7.80;3.53;;;22.10;99.90;;;;;;5062510;28;20088;-81
2021/09/26 11:39:40;;;;;;;6.70;3.85;;;21.90;99.90;;;;;;5040863;28;20110;-79
2021/09/26 11:42:28;;;;;;;4.82;3.30;;;21.80;99.90;;;;;;5041836;28;20075;-80
2021/09/26 11:44:55;;;;;;;4.63;3.10;;;21.50;99.90;;;;;;5041015;28;20080;-80
2021/09/26 11:47:22;;;;;;;5.95;3.42;;;21.40;99.90;;;;;;5044191;28;20049;-79
2021/09/26 11:49:47;;;;;;;6.20;4.13;;;21.50;99.90;;;;;;5055834;28;20044;-81
2021/09/26 11:52:13;;;;;;;5.07;3.53;;;21.30;99.90;;;;;;5067663;28;20101;-79
2021/09/26 11:54:39;;;;;;;4.80;3.22;;;21.20;99.90;;;;;;5056908;28;20041;-79
2021/09/26 11:57:09;;;;;;;6.72;3.78;;;21.10;99.90;;;;;;5041434;28;20397;-79
2021/09/26 11:59:40;;;;;;;5.97;3.20;;;21.00;99.90;;;;;;5072857;28;20051;-80
2021/09/26 12:02:14;;;;;;;5.63;3.97;;;21.00;99.90;;;;;;5065885;28;20044;-81
2021/09/26 12:04:41;;;;;;;4.30;2.63;;;21.00;99.90;;;;;;5064601;28;20063;-81
2021/09/26 12:07:08;;;;;;;4.15;3.08;;;21.00;99.90;;;;;;5067596;28;20071;-79
2021/09/26 12:09:41;;;;;;;5.43;3.63;;;21.10;99.90;;;;;;5039625;28;20040;-80
2021/09/26 12:12:29;;;;;;;6.05;3.72;;;21.20;99.90;;;;;;5048619;28;20045;-81
2021/09/26 12:15:02;;;;;;;4.53;3.55;;;21.40;99.90;;;;;;5041521;28;20039;-79
2021/09/26 12:17:30;;;;;;;7.10;3.55;;;21.50;99.90;;;;;;5053801;28;20035;-79
2021/09/26 12:20:06;;;;;;;7.38;3.97;;;21.70;99.90;;;;;;5034466;28;20055;-80
2021/09/26 12:22:33;;;;;;;13.27;3.25;;;21.60;99.90;;;;;;5056048;28;20041;-81
2021/09/26 12:25:01;;;;;;;4.72;2.88;;;21.70;99.90;;;;;;5039507;28;20036;-77
2021/09/26 12:27:50;;;;;;;5.63;3.25;;;21.70;99.90;;;;;;5055162;28;20052;-79
2021/09/26 12:30:24;;;;;;;9.20;3.88;;;21.70;99.90;;;;;;5069687;28;20082;-78
2021/09/26 12:32:58;;;;;;;4.70;3.20;;;21.60;99.90;;;;;;5056286;28;20033;-79
2021/09/26 12:35:33;;;;;;;5.43;3.72;;;21.40;99.90;;;;;;5039082;28;20032;-79
2021/09/26 12:38:29;;;;;;;11.02;4.15;;;21.30;99.90;;;;;;5056220;28;20595;-79
2021/09/26 12:40:57;;;;;;;5.53;3.40;;;21.10;99.90;;;;;;5032400;28;20182;-80
2021/09/26 12:43:28;;;;;;;5.65;4.25;;;20.90;99.90;;;;;;5066087;28;20295;-80
2021/09/26 12:45:57;;;;;;;6.15;4.28;;;20.80;99.90;;;;;;5038938;28;20066;-80
2021/09/26 12:48:24;;;;;;;5.05;3.53;;;20.80;99.90;;;;;;5051896;28;20851;-81
2021/09/26 12:50:57;;;;;;;4.43;3.63;;;20.70;99.90;;;;;;5060559;28;20079;-79
2021/09/26 12:53:26;;;;;;;6.22;3.40;;;20.70;99.90;;;;;;5071686;28;20071;-79
2021/09/26 12:55:55;;;;;;;6.72;3.60;;;20.80;99.90;;;;;;5056783;28;20079;-81
2021/09/26 12:58:39;;;;;;;6.30;3.97;;;20.90;99.90;;;;;;5050096;28;20049;-80
2021/09/26 13:01:16;;;;;;;4.55;3.38;;;21.10;99.90;;;;;;5038785;28;20101;-79
2021/09/26 13:03:53;;;;;;;8.50;4.55;;;21.30;99.90;;;;;;5037551;28;20523;-80
2021/09/26 13:06:49;;;;;;;6.93;3.92;;;21.50;99.90;;;;;;5056125;28;20044;-78
2021/09/26 13:09:29;;;;;;;6.63;4.45;;;21.70;99.90;;;;;;5055218;28;20083;-79